Terminal Aerodrome Forecast
Issued by NWS

Current Version | Previous Version | Text Only | Print | Product List | Glossary Off
Versions: 1 2 3 4 5 6 7 8 9 10 11 12 13 14 15 16 17

000
FTUS41 KILN 180948 AAA
TAFLCK
TAF AMD
KLCK 180948Z 1810/1906 30010KT P6SM OVC025
     FM181500 16009KT P6SM FEW015 SCT250
     FM182300 11005KT P6SM SCT250=

USA.gov is the U.S. government's official web portal to all federal, state and local government web resources and services.